Time;durP1;ratioP1;P1;durP2;ratioP2;P2;SDS_P1;SDS_P2;PMS_P1;PMS_P2;Temp;Humidity;BMP_temperature;BMP_pressure;BME280_temperature;BME280_humidity;BME280_pressure;Samples;Min_cycle;Max_cycle;Signal;HPM_P1;HPM_P2
2023/09/04 00:01:37;;;;;;;3.20;2.00;;;;;;;;;;5064724;28;20211;-74
2023/09/04 00:04:03;;;;;;;4.53;2.25;;;;;;;;;;5062317;28;20313;-75
2023/09/04 00:06:29;;;;;;;3.05;2.17;;;;;;;;;;5063091;28;20025;-74
2023/09/04 00:08:57;;;;;;;3.47;2.30;;;;;;;;;;5065456;28;20025;-77
2023/09/04 00:11:24;;;;;;;3.33;2.15;;;;;;;;;;5064939;28;20100;-75
2023/09/04 00:13:50;;;;;;;4.32;2.08;;;;;;;;;;5065510;28;20351;-75
2023/09/04 00:16:15;;;;;;;3.35;2.00;;;;;;;;;;5065172;28;20033;-75
2023/09/04 00:18:41;;;;;;;4.07;2.40;;;;;;;;;;5068530;28;20032;-81
2023/09/04 00:21:06;;;;;;;2.75;2.10;;;;;;;;;;5062958;28;20017;-74
2023/09/04 00:23:32;;;;;;;3.70;2.20;;;;;;;;;;5062019;28;20032;-76
2023/09/04 00:25:57;;;;;;;3.67;2.20;;;;;;;;;;5062022;28;20025;-76
2023/09/04 00:28:23;;;;;;;2.90;2.00;;;;;;;;;;5064372;28;20033;-74
2023/09/04 00:30:48;;;;;;;2.60;1.98;;;;;;;;;;5061312;28;20033;-75
2023/09/04 00:33:14;;;;;;;6.97;2.50;;;;;;;;;;5061604;28;20059;-75
2023/09/04 00:35:39;;;;;;;3.50;2.10;;;;;;;;;;5061720;28;20040;-79
2023/09/04 00:38:04;;;;;;;2.80;2.10;;;;;;;;;;5059881;28;20021;-76
2023/09/04 00:40:30;;;;;;;3.83;2.08;;;;;;;;;;5061720;28;20471;-75
2023/09/04 00:42:55;;;;;;;3.83;2.10;;;;;;;;;;5061475;28;20386;-75
2023/09/04 00:45:20;;;;;;;4.68;2.20;;;;;;;;;;5061194;28;20036;-78
2023/09/04 00:47:46;;;;;;;3.67;2.20;;;;;;;;;;5065843;28;20321;-74
2023/09/04 00:50:18;;;;;;;5.80;2.20;;;;;;;;;;5061622;28;20071;-80
2023/09/04 00:52:44;;;;;;;3.97;2.10;;;;;;;;;;5067777;28;20064;-74
2023/09/04 00:55:10;;;;;;;4.00;2.17;;;;;;;;;;5065576;28;20332;-73
2023/09/04 00:57:38;;;;;;;4.30;2.25;;;;;;;;;;5061680;28;20152;-74
2023/09/04 01:00:12;;;;;;;3.80;2.28;;;;;;;;;;5063393;28;20266;-73
2023/09/04 01:02:39;;;;;;;3.60;2.30;;;;;;;;;;5062030;28;20055;-74
2023/09/04 01:05:04;;;;;;;3.97;2.25;;;;;;;;;;5064052;28;20060;-73
2023/09/04 01:07:31;;;;;;;4.95;2.30;;;;;;;;;;5064213;28;20032;-73
2023/09/04 01:09:56;;;;;;;3.47;2.30;;;;;;;;;;5067057;28;20096;-75
2023/09/04 01:12:26;;;;;;;4.15;2.03;;;;;;;;;;5060982;28;20029;-73
2023/09/04 01:14:55;;;;;;;3.40;2.30;;;;;;;;;;5064944;28;20088;-73
2023/09/04 01:17:21;;;;;;;3.83;2.10;;;;;;;;;;5062266;28;20086;-74
2023/09/04 01:19:47;;;;;;;3.30;2.22;;;;;;;;;;5061047;28;20021;-74
2023/09/04 01:22:12;;;;;;;3.90;2.20;;;;;;;;;;5062019;28;20055;-80
2023/09/04 01:24:39;;;;;;;3.88;2.20;;;;;;;;;;5060378;28;20025;-74
2023/09/04 01:27:16;;;;;;;3.92;2.30;;;;;;;;;;5060229;28;20034;-74
2023/09/04 01:29:50;;;;;;;3.28;2.10;;;;;;;;;;5060499;28;20273;-76
2023/09/04 01:32:47;;;;;;;7.22;2.40;;;;;;;;;;5059527;28;20060;-74
2023/09/04 01:35:14;;;;;;;4.07;2.22;;;;;;;;;;5060638;28;20025;-75
2023/09/04 01:37:40;;;;;;;4.07;2.35;;;;;;;;;;5060458;28;20088;-75
2023/09/04 01:40:07;;;;;;;3.25;2.10;;;;;;;;;;5060247;28;20274;-77
2023/09/04 01:42:34;;;;;;;4.38;2.20;;;;;;;;;;5059006;28;20048;-76
2023/09/04 01:45:02;;;;;;;6.15;2.42;;;;;;;;;;5063965;28;20304;-74
2023/09/04 01:47:28;;;;;;;4.55;2.47;;;;;;;;;;5060929;28;20329;-77
2023/09/04 01:49:53;;;;;;;3.50;2.30;;;;;;;;;;5062114;28;20048;-76
2023/09/04 01:52:18;;;;;;;2.85;2.20;;;;;;;;;;5060156;28;20055;-76
2023/09/04 01:54:43;;;;;;;4.90;2.22;;;;;;;;;;5058627;28;20029;-80
2023/09/04 01:57:09;;;;;;;3.97;2.20;;;;;;;;;;5060351;28;20048;-81
2023/09/04 01:59:34;;;;;;;4.07;2.28;;;;;;;;;;5064401;28;20024;-81
2023/09/04 02:02:00;;;;;;;4.57;2.42;;;;;;;;;;5060021;28;20029;-75
2023/09/04 02:04:25;;;;;;;5.07;2.47;;;;;;;;;;5058769;28;20031;-80
2023/09/04 02:06:50;;;;;;;3.20;2.25;;;;;;;;;;5058482;28;20059;-75
2023/09/04 02:09:16;;;;;;;3.80;2.40;;;;;;;;;;5059804;28;20029;-75
2023/09/04 02:11:41;;;;;;;3.40;2.40;;;;;;;;;;5059958;28;20033;-74
2023/09/04 02:14:06;;;;;;;5.60;2.50;;;;;;;;;;5059420;28;20021;-79
2023/09/04 02:16:32;;;;;;;4.22;2.30;;;;;;;;;;5063519;28;20036;-76
2023/09/04 02:18:57;;;;;;;4.35;2.30;;;;;;;;;;5059417;28;20028;-74
2023/09/04 02:21:22;;;;;;;3.95;2.47;;;;;;;;;;5062849;28;20020;-74
2023/09/04 02:23:48;;;;;;;4.47;2.40;;;;;;;;;;5060360;28;20020;-74
2023/09/04 02:26:13;;;;;;;4.13;2.53;;;;;;;;;;5060110;28;20067;-75
2023/09/04 02:28:38;;;;;;;3.17;2.25;;;;;;;;;;5062936;28;20041;-75
2023/09/04 02:31:07;;;;;;;5.05;2.53;;;;;;;;;;5067613;28;20025;-74
2023/09/04 02:33:34;;;;;;;3.90;2.50;;;;;;;;;;5059450;28;20067;-74
2023/09/04 02:35:59;;;;;;;3.60;2.50;;;;;;;;;;5061412;28;20028;-74
2023/09/04 02:38:24;;;;;;;4.60;2.50;;;;;;;;;;5059398;28;20027;-76
2023/09/04 02:40:50;;;;;;;4.03;2.70;;;;;;;;;;5059987;28;20024;-75
2023/09/04 02:43:15;;;;;;;4.38;2.40;;;;;;;;;;5059032;28;20021;-78
2023/09/04 02:45:41;;;;;;;4.30;2.47;;;;;;;;;;5059506;28;20434;-75
2023/09/04 02:48:06;;;;;;;4.55;2.70;;;;;;;;;;5065105;28;20060;-74
2023/09/04 02:50:31;;;;;;;3.67;2.53;;;;;;;;;;5064620;28;20182;-74
2023/09/04 02:52:57;;;;;;;7.65;2.70;;;;;;;;;;5057982;28;20055;-77
2023/09/04 02:55:22;;;;;;;7.88;2.53;;;;;;;;;;5069717;28;20093;-74
2023/09/04 02:57:47;;;;;;;4.93;2.80;;;;;;;;;;5062447;28;20053;-75
2023/09/04 03:00:13;;;;;;;4.28;2.72;;;;;;;;;;5067783;28;20067;-75
2023/09/04 03:02:38;;;;;;;3.95;2.63;;;;;;;;;;5063314;28;20025;-74
2023/09/04 03:05:04;;;;;;;4.25;2.63;;;;;;;;;;5059370;28;20029;-77
2023/09/04 03:07:30;;;;;;;5.07;2.70;;;;;;;;;;5064889;28;20028;-78
2023/09/04 03:09:59;;;;;;;4.75;2.72;;;;;;;;;;5066437;28;20031;-74
2023/09/04 03:12:25;;;;;;;9.20;2.88;;;;;;;;;;5063508;28;20029;-74
2023/09/04 03:14:59;;;;;;;7.68;2.70;;;;;;;;;;5066895;28;20335;-75
2023/09/04 03:17:26;;;;;;;4.85;2.60;;;;;;;;;;5062089;28;20107;-74
2023/09/04 03:19:53;;;;;;;8.95;2.85;;;;;;;;;;5064896;28;20029;-75
2023/09/04 03:22:18;;;;;;;4.53;2.80;;;;;;;;;;5069613;28;20039;-74
2023/09/04 03:24:44;;;;;;;5.13;2.97;;;;;;;;;;5062594;28;20225;-76
2023/09/04 03:27:09;;;;;;;5.85;2.72;;;;;;;;;;5061297;28;20112;-74
2023/09/04 03:29:34;;;;;;;4.88;2.60;;;;;;;;;;5074133;28;20021;-75
2023/09/04 03:32:00;;;;;;;4.35;2.80;;;;;;;;;;5070977;28;20032;-75
2023/09/04 03:34:25;;;;;;;3.85;2.65;;;;;;;;;;5071842;28;20029;-75
2023/09/04 03:36:50;;;;;;;4.63;2.83;;;;;;;;;;5069579;28;20656;-74
2023/09/04 03:39:16;;;;;;;4.18;3.00;;;;;;;;;;5070968;28;20453;-74
2023/09/04 03:41:42;;;;;;;3.75;2.90;;;;;;;;;;5071398;28;20047;-74
2023/09/04 03:44:07;;;;;;;3.80;2.65;;;;;;;;;;5071431;28;20108;-74
2023/09/04 03:46:33;;;;;;;5.40;3.00;;;;;;;;;;5070783;28;20021;-74
2023/09/04 03:48:58;;;;;;;4.38;2.90;;;;;;;;;;5070037;28;20028;-74
2023/09/04 03:51:23;;;;;;;7.05;3.17;;;;;;;;;;5071462;28;20028;-74
2023/09/04 03:53:48;;;;;;;5.63;2.97;;;;;;;;;;5071243;28;20107;-74
2023/09/04 03:56:14;;;;;;;3.60;2.80;;;;;;;;;;5065733;28;20369;-74
2023/09/04 03:58:39;;;;;;;4.13;3.10;;;;;;;;;;5071268;28;20032;-74
2023/09/04 04:01:04;;;;;;;5.45;2.90;;;;;;;;;;5070946;28;20485;-74
2023/09/04 04:03:30;;;;;;;5.25;3.10;;;;;;;;;;5071371;28;20488;-76
2023/09/04 04:05:55;;;;;;;5.10;3.10;;;;;;;;;;5071545;28;20047;-74
2023/09/04 04:08:20;;;;;;;6.82;3.17;;;;;;;;;;5071071;28;20028;-74
2023/09/04 04:10:46;;;;;;;5.53;3.30;;;;;;;;;;5071452;28;20469;-74
2023/09/04 04:13:11;;;;;;;5.88;3.30;;;;;;;;;;5071080;28;20028;-73
2023/09/04 04:15:38;;;;;;;5.35;3.20;;;;;;;;;;5071321;28;20684;-74
2023/09/04 04:18:04;;;;;;;4.97;3.30;;;;;;;;;;5071306;28;20016;-74
2023/09/04 04:20:30;;;;;;;5.35;3.15;;;;;;;;;;5071359;28;20033;-74
2023/09/04 04:22:55;;;;;;;6.90;3.13;;;;;;;;;;5070334;28;20673;-74
2023/09/04 04:25:20;;;;;;;5.53;3.30;;;;;;;;;;5071257;28;20060;-74
2023/09/04 04:27:45;;;;;;;4.97;3.20;;;;;;;;;;5071225;28;20044;-74
2023/09/04 04:30:12;;;;;;;5.80;3.22;;;;;;;;;;5068000;28;20028;-77
2023/09/04 04:32:38;;;;;;;4.82;3.10;;;;;;;;;;5070688;28;20078;-74
2023/09/04 04:35:04;;;;;;;5.22;3.50;;;;;;;;;;5070819;28;20033;-74
2023/09/04 04:37:30;;;;;;;6.30;3.42;;;;;;;;;;5070488;28;20059;-74
2023/09/04 04:39:55;;;;;;;4.53;3.17;;;;;;;;;;5070267;28;20599;-74
2023/09/04 04:42:24;;;;;;;4.53;3.00;;;;;;;;;;5070811;28;20488;-74
2023/09/04 04:44:49;;;;;;;6.40;3.85;;;;;;;;;;5070005;28;20078;-74
2023/09/04 04:47:14;;;;;;;4.95;3.40;;;;;;;;;;5070736;28;20439;-74
2023/09/04 04:49:40;;;;;;;5.43;3.60;;;;;;;;;;5069962;28;20116;-74
2023/09/04 04:52:05;;;;;;;6.43;3.40;;;;;;;;;;5070494;28;20435;-74
2023/09/04 04:54:30;;;;;;;6.07;3.55;;;;;;;;;;5070160;28;20050;-74
2023/09/04 04:56:56;;;;;;;5.35;3.58;;;;;;;;;;5070085;28;20072;-74
2023/09/04 04:59:21;;;;;;;6.80;3.60;;;;;;;;;;5069896;28;20025;-74
2023/09/04 05:01:47;;;;;;;7.28;4.15;;;;;;;;;;5071557;28;20028;-75
2023/09/04 05:04:12;;;;;;;8.32;3.55;;;;;;;;;;5073382;28;20037;-74
2023/09/04 05:06:38;;;;;;;10.70;3.80;;;;;;;;;;5071730;28;20065;-74
2023/09/04 05:09:05;;;;;;;5.88;3.67;;;;;;;;;;5069865;28;20086;-75
2023/09/04 05:11:30;;;;;;;6.20;3.92;;;;;;;;;;5070080;28;20029;-74
2023/09/04 05:13:55;;;;;;;7.63;3.85;;;;;;;;;;5069338;28;20039;-74
2023/09/04 05:16:21;;;;;;;8.27;3.60;;;;;;;;;;5070249;28;20556;-75
2023/09/04 05:18:46;;;;;;;8.43;3.80;;;;;;;;;;5069437;28;20036;-74
2023/09/04 05:21:11;;;;;;;7.82;3.80;;;;;;;;;;5069848;28;20012;-74
2023/09/04 05:23:37;;;;;;;7.28;3.65;;;;;;;;;;5069417;28;20103;-74
2023/09/04 05:26:02;;;;;;;5.82;3.78;;;;;;;;;;5069691;28;20028;-74
2023/09/04 05:28:28;;;;;;;10.90;4.05;;;;;;;;;;5068459;28;20033;-74
2023/09/04 05:30:53;;;;;;;12.00;4.30;;;;;;;;;;5069400;28;20031;-74
2023/09/04 05:33:19;;;;;;;7.78;4.10;;;;;;;;;;5069386;28;20525;-74
2023/09/04 05:35:54;;;;;;;8.20;3.80;;;;;;;;;;5069662;28;20044;-74
2023/09/04 05:38:19;;;;;;;12.43;4.05;;;;;;;;;;5064576;28;20029;-74
2023/09/04 05:40:58;;;;;;;12.68;4.25;;;;;;;;;;5066755;28;20044;-74
2023/09/04 05:43:23;;;;;;;19.42;4.57;;;;;;;;;;5069217;28;20028;-74
2023/09/04 05:45:49;;;;;;;23.95;4.80;;;;;;;;;;5067728;28;20136;-76
2023/09/04 05:48:15;;;;;;;15.48;4.70;;;;;;;;;;5066543;28;20052;-73
2023/09/04 05:50:40;;;;;;;19.00;4.45;;;;;;;;;;5064549;28;20658;-75
2023/09/04 05:53:05;;;;;;;24.02;4.82;;;;;;;;;;5068420;28;20033;-75
2023/09/04 05:55:31;;;;;;;52.17;5.63;;;;;;;;;;5069358;28;20020;-76
2023/09/04 05:57:56;;;;;;;52.13;6.53;;;;;;;;;;5062457;28;20032;-74
2023/09/04 06:00:22;;;;;;;49.30;5.70;;;;;;;;;;5068323;28;20492;-75
2023/09/04 06:02:47;;;;;;;19.23;4.57;;;;;;;;;;5068999;28;20556;-75
2023/09/04 06:05:13;;;;;;;16.63;4.80;;;;;;;;;;5061389;28;20025;-73
2023/09/04 06:07:38;;;;;;;18.17;4.93;;;;;;;;;;5065420;28;20909;-74
2023/09/04 06:10:04;;;;;;;13.88;5.05;;;;;;;;;;5061427;28;20039;-72
2023/09/04 06:12:29;;;;;;;15.98;5.07;;;;;;;;;;5067950;28;20056;-73
2023/09/04 06:14:55;;;;;;;17.67;6.45;;;;;;;;;;5072923;28;20029;-73
2023/09/04 06:17:20;;;;;;;15.68;5.68;;;;;;;;;;5068325;28;20024;-73
2023/09/04 06:19:45;;;;;;;15.73;5.13;;;;;;;;;;5067441;28;20070;-73
2023/09/04 06:22:11;;;;;;;15.43;5.30;;;;;;;;;;5068265;28;20102;-74
2023/09/04 06:24:36;;;;;;;12.02;4.88;;;;;;;;;;5067549;28;20111;-74
2023/09/04 06:27:02;;;;;;;10.23;4.63;;;;;;;;;;5075021;28;20035;-74
2023/09/04 06:29:29;;;;;;;10.90;4.53;;;;;;;;;;5068311;28;20046;-79
2023/09/04 06:31:54;;;;;;;12.35;5.30;;;;;;;;;;5071112;28;20066;-74
2023/09/04 06:34:19;;;;;;;14.95;5.22;;;;;;;;;;5078043;28;20254;-74
2023/09/04 06:36:45;;;;;;;8.35;4.97;;;;;;;;;;5076832;28;20087;-77
2023/09/04 06:39:10;;;;;;;12.50;4.97;;;;;;;;;;5072066;28;20031;-77
2023/09/04 06:41:36;;;;;;;13.10;5.13;;;;;;;;;;5067680;28;20105;-80
2023/09/04 06:44:02;;;;;;;10.20;4.63;;;;;;;;;;5076199;28;20025;-81
2023/09/04 06:46:28;;;;;;;9.48;4.65;;;;;;;;;;5074460;28;20170;-77
2023/09/04 06:48:53;;;;;;;6.68;4.63;;;;;;;;;;5076304;28;20669;-81
2023/09/04 06:51:18;;;;;;;8.48;4.70;;;;;;;;;;5077607;28;20036;-75
2023/09/04 06:53:44;;;;;;;6.90;4.40;;;;;;;;;;5072076;28;20028;-80
2023/09/04 06:56:10;;;;;;;7.15;4.50;;;;;;;;;;5070350;28;20040;-75
2023/09/04 06:58:35;;;;;;;7.28;4.50;;;;;;;;;;5071813;28;20042;-81
2023/09/04 07:01:04;;;;;;;7.10;4.75;;;;;;;;;;5074148;28;20231;-80
2023/09/04 07:03:30;;;;;;;6.20;4.22;;;;;;;;;;5072649;28;20028;-86
2023/09/04 07:05:56;;;;;;;5.28;4.20;;;;;;;;;;5064493;28;20036;-85
2023/09/04 07:08:22;;;;;;;9.00;4.75;;;;;;;;;;5073457;28;20029;-82
2023/09/04 07:10:48;;;;;;;5.93;4.32;;;;;;;;;;5071570;28;20057;-82
2023/09/04 07:13:14;;;;;;;8.40;4.50;;;;;;;;;;5062743;28;20035;-82
2023/09/04 07:15:40;;;;;;;8.15;4.70;;;;;;;;;;5071753;28;20032;-79
2023/09/04 07:18:06;;;;;;;5.60;4.40;;;;;;;;;;5068555;28;20044;-79
2023/09/04 07:20:32;;;;;;;7.85;4.40;;;;;;;;;;5070885;28;20032;-76
2023/09/04 07:22:58;;;;;;;10.52;4.30;;;;;;;;;;5075857;28;20077;-74
2023/09/04 07:25:23;;;;;;;6.18;3.85;;;;;;;;;;5080381;28;20039;-76
2023/09/04 07:27:48;;;;;;;7.38;4.30;;;;;;;;;;5081010;28;20107;-74
2023/09/04 07:30:14;;;;;;;7.20;4.10;;;;;;;;;;5078299;28;20036;-74
2023/09/04 07:32:39;;;;;;;9.73;4.43;;;;;;;;;;5079001;28;20213;-73
2023/09/04 07:35:05;;;;;;;6.32;4.30;;;;;;;;;;5079354;28;20091;-75
2023/09/04 07:37:30;;;;;;;9.10;4.25;;;;;;;;;;5078570;28;20024;-78
2023/09/04 07:39:56;;;;;;;9.25;3.90;;;;;;;;;;5072590;28;20060;-73
2023/09/04 07:42:22;;;;;;;6.22;4.03;;;;;;;;;;5077585;28;20033;-74
2023/09/04 07:44:47;;;;;;;6.25;3.78;;;;;;;;;;5079035;28;20033;-74
2023/09/04 07:47:13;;;;;;;6.07;4.05;;;;;;;;;;5079036;28;20078;-75
2023/09/04 07:49:38;;;;;;;7.55;4.20;;;;;;;;;;5078647;28;20048;-73
2023/09/04 07:52:04;;;;;;;8.25;4.20;;;;;;;;;;5077405;28;20073;-74
2023/09/04 07:54:29;;;;;;;5.38;4.05;;;;;;;;;;5077530;28;20088;-73
2023/09/04 07:56:54;;;;;;;6.75;3.92;;;;;;;;;;5084147;28;20059;-74
2023/09/04 07:59:20;;;;;;;6.75;4.00;;;;;;;;;;5075308;28;20236;-73
2023/09/04 08:01:45;;;;;;;7.18;4.10;;;;;;;;;;5078966;28;20032;-73
2023/09/04 08:04:13;;;;;;;6.60;3.95;;;;;;;;;;5085661;28;20020;-74
2023/09/04 08:06:38;;;;;;;5.13;3.92;;;;;;;;;;5068224;28;20056;-74
2023/09/04 08:09:04;;;;;;;5.80;3.90;;;;;;;;;;5083624;28;20031;-72
2023/09/04 08:11:29;;;;;;;6.35;4.20;;;;;;;;;;5070283;28;20044;-72
2023/09/04 08:13:54;;;;;;;5.28;3.90;;;;;;;;;;5074358;28;20058;-73
2023/09/04 08:16:20;;;;;;;6.07;3.90;;;;;;;;;;5073229;28;20071;-72
2023/09/04 08:18:46;;;;;;;6.55;3.80;;;;;;;;;;5072345;28;20028;-78
2023/09/04 08:21:11;;;;;;;6.05;3.67;;;;;;;;;;5069365;28;20029;-79
2023/09/04 08:23:36;;;;;;;5.90;3.60;;;;;;;;;;5070078;28;20063;-77
2023/09/04 08:26:03;;;;;;;6.00;3.65;;;;;;;;;;5069443;28;20024;-76
2023/09/04 08:28:29;;;;;;;7.43;3.63;;;;;;;;;;5069934;28;20032;-75
2023/09/04 08:30:54;;;;;;;5.57;3.85;;;;;;;;;;5072263;28;20024;-76
2023/09/04 08:33:20;;;;;;;4.93;3.67;;;;;;;;;;5076974;28;20294;-78
2023/09/04 08:35:45;;;;;;;6.38;3.35;;;;;;;;;;5086723;28;20047;-74
2023/09/04 08:38:11;;;;;;;7.00;3.45;;;;;;;;;;5087009;28;20050;-82
2023/09/04 08:40:39;;;;;;;4.93;3.53;;;;;;;;;;5081087;28;20036;-74
2023/09/04 08:43:07;;;;;;;4.95;3.50;;;;;;;;;;5085920;28;20084;-75
2023/09/04 08:45:34;;;;;;;7.70;3.50;;;;;;;;;;5081238;28;20066;-76
2023/09/04 08:48:02;;;;;;;5.15;3.70;;;;;;;;;;5083328;28;20024;-76
2023/09/04 08:50:28;;;;;;;4.65;3.20;;;;;;;;;;5082382;28;20053;-77
2023/09/04 08:52:53;;;;;;;4.95;3.13;;;;;;;;;;5081785;28;20289;-76
2023/09/04 08:55:19;;;;;;;4.50;3.30;;;;;;;;;;5082327;28;20020;-75
2023/09/04 08:57:45;;;;;;;7.00;3.60;;;;;;;;;;5081859;28;20044;-74
2023/09/04 09:00:11;;;;;;;6.90;3.30;;;;;;;;;;5081974;28;20031;-75
2023/09/04 09:02:37;;;;;;;4.45;3.38;;;;;;;;;;5081574;28;20055;-74
2023/09/04 09:05:02;;;;;;;5.28;3.03;;;;;;;;;;5090952;28;20021;-76
2023/09/04 09:07:29;;;;;;;5.95;3.40;;;;;;;;;;5081464;28;20031;-73
2023/09/04 09:10:01;;;;;;;4.20;3.28;;;;;;;;;;5082004;28;20024;-74
2023/09/04 09:12:27;;;;;;;5.28;3.30;;;;;;;;;;5081600;28;20066;-74
2023/09/04 09:14:53;;;;;;;5.55;3.10;;;;;;;;;;5082333;28;20028;-78
2023/09/04 09:17:18;;;;;;;5.90;3.20;;;;;;;;;;5075611;28;20032;-75
2023/09/04 09:19:43;;;;;;;5.88;3.25;;;;;;;;;;5077281;28;20068;-74
2023/09/04 09:22:19;;;;;;;4.70;3.10;;;;;;;;;;5080485;28;20021;-75
2023/09/04 09:24:50;;;;;;;4.43;3.10;;;;;;;;;;5089864;28;20025;-74
2023/09/04 09:27:17;;;;;;;4.40;3.10;;;;;;;;;;5084740;28;20503;-81
2023/09/04 09:29:42;;;;;;;4.50;2.88;;;;;;;;;;5089242;28;20028;-75
2023/09/04 09:32:08;;;;;;;5.30;3.17;;;;;;;;;;5082100;28;20148;-75
2023/09/04 09:34:34;;;;;;;4.20;2.90;;;;;;;;;;5081129;28;20059;-74
2023/09/04 09:37:00;;;;;;;7.05;3.17;;;;;;;;;;5089286;28;20027;-74
2023/09/04 09:39:26;;;;;;;4.43;2.92;;;;;;;;;;5088721;28;20534;-74
2023/09/04 09:41:52;;;;;;;4.63;2.72;;;;;;;;;;5069042;28;20181;-74
2023/09/04 09:44:17;;;;;;;4.15;2.90;;;;;;;;;;5067428;28;20025;-75
2023/09/04 09:46:42;;;;;;;4.00;3.08;;;;;;;;;;5069087;28;20036;-75
2023/09/04 09:49:08;;;;;;;4.60;2.95;;;;;;;;;;5068814;28;20078;-73
2023/09/04 09:51:35;;;;;;;3.70;2.75;;;;;;;;;;5064566;28;20098;-74
2023/09/04 09:54:01;;;;;;;4.28;2.85;;;;;;;;;;5070710;28;20476;-74
2023/09/04 09:56:27;;;;;;;4.88;2.97;;;;;;;;;;5064272;28;20047;-73
2023/09/04 09:58:54;;;;;;;4.00;2.70;;;;;;;;;;5064729;28;20032;-74
2023/09/04 10:01:19;;;;;;;4.35;2.60;;;;;;;;;;5061018;28;20052;-74
2023/09/04 10:03:47;;;;;;;4.28;2.60;;;;;;;;;;5071224;28;20031;-77
2023/09/04 10:06:18;;;;;;;4.00;2.70;;;;;;;;;;5069930;28;20029;-83
2023/09/04 10:08:47;;;;;;;4.80;2.47;;;;;;;;;;5064852;28;20037;-75
2023/09/04 10:11:14;;;;;;;4.28;2.50;;;;;;;;;;5064014;28;20120;-80
2023/09/04 10:14:08;;;;;;;5.95;2.65;;;;;;;;;;5068358;28;20034;-80
2023/09/04 10:16:42;;;;;;;4.57;2.75;;;;;;;;;;5065724;28;20111;-80
2023/09/04 10:19:11;;;;;;;5.13;2.83;;;;;;;;;;5086783;28;20024;-76
2023/09/04 10:21:42;;;;;;;3.97;2.50;;;;;;;;;;5088233;28;20292;-84
2023/09/04 10:24:13;;;;;;;4.15;2.70;;;;;;;;;;5088258;28;20024;-80
2023/09/04 10:26:47;;;;;;;4.15;2.72;;;;;;;;;;5087869;28;20054;-80
2023/09/04 10:29:17;;;;;;;3.90;2.70;;;;;;;;;;5058346;28;20029;-74
2023/09/04 10:31:43;;;;;;;4.90;2.95;;;;;;;;;;5076454;28;20036;-75
2023/09/04 10:34:10;;;;;;;5.43;2.58;;;;;;;;;;5076136;28;20416;-75
2023/09/04 10:36:38;;;;;;;4.40;2.72;;;;;;;;;;5069037;28;20527;-85
2023/09/04 10:39:05;;;;;;;3.72;2.60;;;;;;;;;;5066443;28;20047;-82
2023/09/04 10:41:31;;;;;;;4.10;2.92;;;;;;;;;;5069147;28;20055;-81
2023/09/04 10:43:57;;;;;;;3.90;2.80;;;;;;;;;;5059249;28;20021;-88
2023/09/04 10:46:23;;;;;;;4.28;2.90;;;;;;;;;;5062758;28;20059;-93
2023/09/04 10:48:52;;;;;;;3.90;2.63;;;;;;;;;;5062126;28;20469;-92
2023/09/04 10:51:30;;;;;;;5.68;2.60;;;;;;;;;;5069914;28;20469;-91
2023/09/04 10:54:03;;;;;;;3.80;2.60;;;;;;;;;;5069685;28;20127;-91
2023/09/04 10:56:29;;;;;;;4.28;2.38;;;;;;;;;;5069729;28;20055;-85
2023/09/04 10:59:02;;;;;;;3.88;2.30;;;;;;;;;;5068288;28;20401;-84
2023/09/04 11:01:45;;;;;;;3.88;2.50;;;;;;;;;;5069109;28;20046;-82
2023/09/04 11:04:46;;;;;;;3.63;2.42;;;;;;;;;;5068687;28;20066;-86
2023/09/04 11:07:20;;;;;;;5.38;2.30;;;;;;;;;;5067383;28;20062;-83
2023/09/04 11:09:51;;;;;;;4.25;2.42;;;;;;;;;;5069172;28;20021;-81
2023/09/04 11:12:22;;;;;;;6.40;2.30;;;;;;;;;;5065320;28;20490;-77
2023/09/04 11:14:51;;;;;;;3.00;2.30;;;;;;;;;;5068963;28;20495;-77
2023/09/04 11:17:17;;;;;;;8.85;2.70;;;;;;;;;;5068576;28;20031;-75
2023/09/04 11:19:43;;;;;;;3.10;2.25;;;;;;;;;;5071754;28;20021;-77
2023/09/04 11:22:16;;;;;;;4.40;2.22;;;;;;;;;;5067825;28;20150;-76
2023/09/04 11:24:41;;;;;;;2.90;2.40;;;;;;;;;;5068622;28;20404;-76
2023/09/04 11:27:07;;;;;;;4.60;2.40;;;;;;;;;;5068731;28;20507;-75
2023/09/04 11:29:33;;;;;;;3.22;2.17;;;;;;;;;;5068779;28;20108;-75
2023/09/04 11:32:00;;;;;;;3.25;2.15;;;;;;;;;;5077285;28;20069;-76
2023/09/04 11:34:26;;;;;;;4.32;2.50;;;;;;;;;;5068500;28;20016;-75
2023/09/04 11:36:51;;;;;;;5.40;2.40;;;;;;;;;;5068749;28;20035;-74
2023/09/04 11:39:16;;;;;;;4.10;2.10;;;;;;;;;;5069774;28;20469;-76
2023/09/04 11:41:42;;;;;;;2.63;1.83;;;;;;;;;;5071792;28;20029;-76
2023/09/04 11:44:07;;;;;;;5.13;2.40;;;;;;;;;;5071002;28;20017;-76
2023/09/04 11:46:34;;;;;;;3.90;2.40;;;;;;;;;;5070805;28;20025;-77
2023/09/04 11:49:01;;;;;;;4.85;2.25;;;;;;;;;;5070873;28;20025;-75
2023/09/04 11:51:26;;;;;;;4.18;2.25;;;;;;;;;;5059026;28;20048;-76
2023/09/04 11:53:53;;;;;;;3.00;2.20;;;;;;;;;;5070146;28;20105;-75
2023/09/04 11:56:18;;;;;;;3.60;2.20;;;;;;;;;;5072026;28;20045;-76
2023/09/04 11:58:43;;;;;;;3.65;2.08;;;;;;;;;;5072167;28;20051;-77
2023/09/04 12:01:09;;;;;;;3.47;2.00;;;;;;;;;;5071872;28;20349;-76
2023/09/04 12:03:35;;;;;;;3.67;2.10;;;;;;;;;;5070552;28;20024;-75
2023/09/04 12:06:00;;;;;;;4.03;2.20;;;;;;;;;;5071674;28;20028;-77
2023/09/04 12:08:25;;;;;;;3.10;1.80;;;;;;;;;;5073995;28;20025;-75
2023/09/04 12:10:51;;;;;;;3.05;2.10;;;;;;;;;;5072390;28;20362;-75
2023/09/04 12:13:17;;;;;;;5.30;1.98;;;;;;;;;;5070482;28;20032;-75
2023/09/04 12:15:43;;;;;;;4.15;2.10;;;;;;;;;;5071892;28;20389;-75
2023/09/04 12:18:09;;;;;;;3.78;2.22;;;;;;;;;;5071624;28;20028;-76
2023/09/04 12:20:36;;;;;;;3.78;1.90;;;;;;;;;;5071141;28;20538;-76
2023/09/04 12:23:02;;;;;;;3.60;2.08;;;;;;;;;;5071044;28;20054;-75
2023/09/04 12:25:53;;;;;;;3.90;2.10;;;;;;;;;;5071707;28;20366;-76
2023/09/04 12:28:19;;;;;;;5.00;2.10;;;;;;;;;;5068880;28;20036;-77
2023/09/04 12:30:45;;;;;;;3.67;2.08;;;;;;;;;;5071697;28;20427;-74
2023/09/04 12:33:17;;;;;;;5.13;2.00;;;;;;;;;;5069942;28;20028;-76
2023/09/04 12:35:44;;;;;;;3.05;2.08;;;;;;;;;;5071728;28;20481;-75
2023/09/04 12:38:12;;;;;;;3.13;1.90;;;;;;;;;;5069217;28;20064;-75
2023/09/04 12:40:38;;;;;;;3.63;2.20;;;;;;;;;;5071796;28;20024;-79
2023/09/04 12:43:05;;;;;;;4.63;2.20;;;;;;;;;;5070759;28;20020;-75
2023/09/04 12:45:30;;;;;;;4.78;2.10;;;;;;;;;;5071412;28;20021;-75
2023/09/04 12:47:58;;;;;;;4.70;2.15;;;;;;;;;;5070696;28;20032;-75
2023/09/04 12:50:24;;;;;;;4.18;2.20;;;;;;;;;;5070197;28;20384;-76
2023/09/04 12:52:49;;;;;;;4.47;2.20;;;;;;;;;;5070577;28;20500;-75
2023/09/04 12:55:14;;;;;;;4.00;2.10;;;;;;;;;;5070879;28;20040;-77
2023/09/04 12:57:40;;;;;;;4.55;2.20;;;;;;;;;;5069976;28;20052;-78
2023/09/04 13:00:07;;;;;;;3.78;1.98;;;;;;;;;;5071023;28;20020;-75
2023/09/04 13:02:32;;;;;;;4.85;2.10;;;;;;;;;;5070522;28;20028;-75
2023/09/04 13:04:58;;;;;;;3.00;2.00;;;;;;;;;;5070953;28;20388;-76
2023/09/04 13:07:24;;;;;;;3.72;2.13;;;;;;;;;;5072965;28;20032;-76
2023/09/04 13:09:49;;;;;;;4.53;2.30;;;;;;;;;;5070472;28;20498;-74
2023/09/04 13:12:15;;;;;;;4.18;2.00;;;;;;;;;;5070523;28;20469;-74
2023/09/04 13:14:40;;;;;;;4.97;2.10;;;;;;;;;;5070730;28;20453;-75
2023/09/04 13:17:05;;;;;;;4.15;2.10;;;;;;;;;;5070111;28;20117;-77
2023/09/04 13:19:31;;;;;;;3.75;2.17;;;;;;;;;;5070558;28;20078;-75
2023/09/04 13:21:57;;;;;;;3.53;2.10;;;;;;;;;;5069790;28;20027;-76
2023/09/04 13:24:22;;;;;;;3.13;2.03;;;;;;;;;;5070620;28;20044;-75
2023/09/04 13:26:48;;;;;;;3.50;2.20;;;;;;;;;;5070334;28;20036;-76
2023/09/04 13:29:13;;;;;;;5.20;2.15;;;;;;;;;;5070480;28;20031;-75
2023/09/04 13:31:38;;;;;;;4.38;1.98;;;;;;;;;;5070386;28;20052;-74
2023/09/04 13:34:04;;;;;;;4.45;2.20;;;;;;;;;;5070301;28;20083;-76
2023/09/04 13:36:29;;;;;;;3.95;2.30;;;;;;;;;;5070169;28;20052;-75
2023/09/04 13:38:55;;;;;;;3.30;2.20;;;;;;;;;;5069594;28;20428;-75
2023/09/04 13:41:20;;;;;;;3.88;2.10;;;;;;;;;;5069768;28;20028;-75
2023/09/04 13:43:45;;;;;;;4.05;2.00;;;;;;;;;;5068192;28;20115;-75
2023/09/04 13:46:11;;;;;;;2.67;2.10;;;;;;;;;;5069795;28;20055;-77
2023/09/04 13:48:36;;;;;;;4.57;2.30;;;;;;;;;;5070038;28;20025;-78
2023/09/04 13:51:05;;;;;;;3.72;2.15;;;;;;;;;;5069672;28;20100;-83
2023/09/04 13:53:31;;;;;;;5.13;2.30;;;;;;;;;;5069518;28;20123;-80
2023/09/04 13:55:56;;;;;;;4.03;2.20;;;;;;;;;;5069641;28;20047;-81
2023/09/04 13:58:21;;;;;;;4.55;2.20;;;;;;;;;;5069969;28;20024;-87
2023/09/04 14:00:47;;;;;;;4.55;2.20;;;;;;;;;;5069418;28;20028;-83
2023/09/04 14:03:13;;;;;;;3.95;2.30;;;;;;;;;;5069355;28;20154;-82
2023/09/04 14:05:38;;;;;;;8.00;2.50;;;;;;;;;;5069502;28;20074;-78
2023/09/04 14:08:04;;;;;;;4.47;2.22;;;;;;;;;;5071374;28;20036;-81
2023/09/04 14:10:29;;;;;;;4.28;2.28;;;;;;;;;;5069613;28;20087;-84
2023/09/04 14:12:55;;;;;;;3.75;2.13;;;;;;;;;;5068246;28;20078;-81
2023/09/04 14:15:21;;;;;;;6.30;2.30;;;;;;;;;;5069700;28;20029;-76
2023/09/04 14:17:46;;;;;;;4.47;2.53;;;;;;;;;;5070576;28;20036;-80
2023/09/04 14:20:12;;;;;;;3.13;2.33;;;;;;;;;;5071159;28;20021;-80
2023/09/04 14:22:37;;;;;;;3.95;2.47;;;;;;;;;;5070923;28;20023;-78
2023/09/04 14:25:03;;;;;;;3.90;2.55;;;;;;;;;;5072079;28;20020;-83
2023/09/04 14:27:29;;;;;;;4.10;2.45;;;;;;;;;;5071894;28;20116;-75
2023/09/04 14:29:56;;;;;;;5.93;2.33;;;;;;;;;;5072273;28;20044;-82
2023/09/04 14:32:22;;;;;;;5.25;2.33;;;;;;;;;;5086460;28;20021;-76
2023/09/04 14:34:47;;;;;;;3.88;2.50;;;;;;;;;;5061646;28;20029;-75
2023/09/04 14:37:13;;;;;;;5.85;2.50;;;;;;;;;;5070126;28;20031;-86